createdAt,value
2022-10-28T06:08:46.493Z,2.20
2022-10-28T06:11:11.765Z,3.60
2022-10-28T06:13:38.563Z,2.07
2022-10-28T06:16:05.579Z,2.60
2022-10-28T06:18:32.737Z,2.70
2022-10-28T06:20:59.731Z,2.63
2022-10-28T06:23:27.708Z,2.20
2022-10-28T06:25:59.365Z,1.83
2022-10-28T06:28:26.892Z,2.90
2022-10-28T06:30:53.782Z,2.80
2022-10-28T06:33:20.605Z,2.90
2022-10-28T06:35:47.472Z,1.80
2022-10-28T06:38:14.267Z,3.00
2022-10-28T06:40:41.116Z,3.33
2022-10-28T06:43:08.723Z,2.80
2022-10-28T06:45:35.556Z,2.00
2022-10-28T06:48:06.088Z,2.97
2022-10-28T06:50:34.630Z,3.60
2022-10-28T06:53:02.334Z,3.53
2022-10-28T06:55:29.348Z,2.53
2022-10-28T06:58:00.256Z,3.93
2022-10-28T07:00:28.047Z,3.33
2022-10-28T07:02:55.345Z,4.13
2022-10-28T07:05:23.125Z,2.70
2022-10-28T07:07:50.159Z,2.53
2022-10-28T07:10:17.200Z,3.13
2022-10-28T07:12:43.992Z,3.10
2022-10-28T07:15:11.207Z,2.83
2022-10-28T07:17:38.272Z,2.87
2022-10-28T07:20:05.658Z,2.80
2022-10-28T07:22:32.486Z,2.80
2022-10-28T07:24:59.265Z,2.63
2022-10-28T07:27:26.116Z,2.80
2022-10-28T07:29:52.886Z,3.20
2022-10-28T07:32:19.719Z,2.60
2022-10-28T07:34:46.579Z,3.67
2022-10-28T07:37:13.417Z,3.33
2022-10-28T07:39:40.203Z,2.20
2022-10-28T07:42:07.098Z,3.20
2022-10-28T07:44:33.874Z,3.40
2022-10-28T07:47:00.658Z,2.60
2022-10-28T07:49:27.506Z,2.97
2022-10-28T07:51:54.348Z,2.90
2022-10-28T07:54:25.417Z,3.97
2022-10-28T07:56:52.353Z,4.37
2022-10-28T07:59:25.801Z,3.90
2022-10-28T08:01:54.453Z,4.50
2022-10-28T08:04:21.323Z,4.07
2022-10-28T08:06:48.268Z,3.37
2022-10-28T08:09:16.812Z,3.00
2022-10-28T08:11:44.991Z,4.37
2022-10-28T08:14:12.789Z,3.50
2022-10-28T08:16:39.895Z,4.57
2022-10-28T08:19:07.914Z,6.57
2022-10-28T08:21:35.202Z,5.20
2022-10-28T08:24:02.527Z,4.43
2022-10-28T08:26:29.651Z,3.60
2022-10-28T08:28:56.603Z,2.67
2022-10-28T08:31:23.396Z,2.40
2022-10-28T08:33:50.222Z,1.67
2022-10-28T08:36:17.341Z,2.07
2022-10-28T08:38:46.423Z,1.40
2022-10-28T08:41:29.075Z,2.77
2022-10-28T08:43:59.322Z,2.40
2022-10-28T08:46:38.336Z,2.17
2022-10-28T08:49:11.058Z,1.60
2022-10-28T08:51:59.066Z,2.70
2022-10-28T08:54:55.238Z,1.80
2022-10-28T08:57:50.717Z,2.27
2022-10-28T09:00:22.563Z,2.70
2022-10-28T09:02:57.098Z,1.70
2022-10-28T09:05:26.474Z,2.00
2022-10-28T09:07:54.106Z,1.50
2022-10-28T09:10:45.004Z,2.37
2022-10-28T09:13:14.951Z,1.57
2022-10-28T09:15:56.147Z,1.10
2022-10-28T09:18:54.158Z,1.87
2022-10-28T09:21:27.454Z,2.77
2022-10-28T09:23:59.317Z,2.00
2022-10-28T09:26:35.461Z,3.23
2022-10-28T09:29:12.777Z,2.70
2022-10-28T09:31:42.367Z,1.60
2022-10-28T09:34:22.255Z,2.17
2022-10-28T09:36:55.259Z,1.60
2022-10-28T09:39:30.100Z,1.73
2022-10-28T09:42:01.258Z,1.10
2022-10-28T09:44:40.342Z,2.23
2022-10-28T09:47:17.123Z,1.70
2022-10-28T09:49:45.775Z,2.03
2022-10-28T09:52:34.992Z,1.90
2022-10-28T09:55:07.873Z,1.63
2022-10-28T09:57:34.669Z,2.10
2022-10-28T10:00:01.549Z,1.87
2022-10-28T10:02:33.801Z,1.97
2022-10-28T10:05:02.331Z,1.70
2022-10-28T10:07:41.983Z,2.03
2022-10-28T10:10:17.886Z,1.73
2022-10-28T10:12:47.440Z,2.10
2022-10-28T10:15:33.735Z,1.70
2022-10-28T10:18:01.519Z,2.17
2022-10-28T10:20:28.983Z,2.57
2022-10-28T10:22:56.126Z,2.00
2022-10-28T10:25:26.274Z,2.67
2022-10-28T10:27:54.414Z,2.07
2022-10-28T10:30:28.777Z,2.43
2022-10-28T10:32:55.792Z,2.10
2022-10-28T10:35:29.399Z,1.80
2022-10-28T10:37:58.488Z,1.80
2022-10-28T10:40:26.896Z,2.23
2022-10-28T10:43:09.997Z,2.20
2022-10-28T10:45:40.532Z,1.77
2022-10-28T10:48:13.480Z,1.93
2022-10-28T10:50:44.122Z,1.63
2022-10-28T10:53:26.739Z,1.60
2022-10-28T10:55:56.331Z,1.70
2022-10-28T10:58:25.577Z,1.97
2022-10-28T11:00:54.800Z,1.77
2022-10-28T11:03:33.251Z,1.30
2022-10-28T11:08:48.376Z,1.97
2022-10-28T11:11:19.337Z,1.40
2022-10-28T11:13:47.313Z,1.93
2022-10-28T11:16:20.583Z,2.40
2022-10-28T11:18:50.076Z,2.00
2022-10-28T11:21:53.589Z,2.43
2022-10-28T11:24:42.286Z,2.00
2022-10-28T11:27:48.632Z,2.43
2022-10-28T11:30:25.889Z,1.43
2022-10-28T11:33:30.758Z,2.47
2022-10-28T11:36:41.158Z,4.63
2022-10-28T11:39:13.511Z,3.50
2022-10-28T11:42:02.213Z,4.13
2022-10-28T11:44:34.364Z,2.43
2022-10-28T11:47:12.198Z,2.47
2022-10-28T11:50:01.887Z,1.50
2022-10-28T11:52:54.112Z,1.20
2022-10-28T11:55:26.902Z,1.80
2022-10-28T11:58:03.017Z,2.10
2022-10-28T12:00:51.596Z,2.10
2022-10-28T12:03:40.012Z,1.60
2022-10-28T12:06:44.487Z,1.40
2022-10-28T12:09:32.499Z,1.80
2022-10-28T12:12:16.634Z,1.87
2022-10-28T12:14:52.617Z,1.90
2022-10-28T12:17:40.921Z,2.20
2022-10-28T12:20:22.563Z,2.37
2022-10-28T12:22:59.221Z,1.80
2022-10-28T12:25:29.696Z,2.30
2022-10-28T12:28:00.739Z,3.00
2022-10-28T12:30:30.644Z,1.67
2022-10-28T12:33:06.293Z,2.70
2022-10-28T12:35:37.233Z,3.10
2022-10-28T12:38:13.121Z,2.67
2022-10-28T12:41:07.560Z,2.57
2022-10-28T12:43:39.091Z,1.70
2022-10-28T12:46:06.465Z,2.00
2022-10-28T12:48:43.397Z,2.83
2022-10-28T12:51:15.743Z,2.13
2022-10-28T12:53:48.596Z,1.73
2022-10-28T12:56:39.591Z,2.80
2022-10-28T12:59:30.965Z,2.17
2022-10-28T13:02:01.572Z,1.83
2022-10-28T13:04:29.095Z,1.90
2022-10-28T13:07:31.282Z,2.43
2022-10-28T13:10:15.663Z,2.07
2022-10-28T13:13:13.665Z,1.83
2022-10-28T13:15:52.296Z,2.50
2022-10-28T13:18:40.311Z,1.93
2022-10-28T13:21:07.207Z,1.77
2022-10-28T13:23:46.503Z,2.30
2022-10-28T13:26:23.553Z,1.73
2022-10-28T13:28:53.271Z,2.07
2022-10-28T13:31:20.716Z,1.67
2022-10-28T13:33:56.730Z,1.87
2022-10-28T13:36:27.894Z,1.80
2022-10-28T13:39:00.335Z,1.60
2022-10-28T13:41:36.462Z,1.83
2022-10-28T13:44:09.105Z,1.90
2022-10-28T13:47:02.267Z,2.00
2022-10-28T13:49:30.767Z,2.43
2022-10-28T13:52:10.023Z,2.03
2022-10-28T13:54:39.446Z,2.07
2022-10-28T13:57:14.064Z,1.70
2022-10-28T14:00:19.185Z,1.57
2022-10-28T14:02:48.968Z,1.73
2022-10-28T14:05:18.219Z,2.23
2022-10-28T14:07:54.906Z,2.23
2022-10-28T14:10:24.636Z,1.87
2022-10-28T14:13:02.763Z,2.13
2022-10-28T14:15:34.964Z,1.90
2022-10-28T14:18:16.207Z,2.10
2022-10-28T14:20:59.226Z,2.10
2022-10-28T14:23:29.110Z,1.53
2022-10-28T14:26:04.602Z,2.30
2022-10-28T14:28:31.701Z,2.67
2022-10-28T14:31:11.729Z,5.90
2022-10-28T14:33:45.178Z,2.30
2022-10-28T14:36:40.928Z,2.20
2022-10-28T14:39:32.374Z,1.83
2022-10-28T14:42:27.671Z,2.07
2022-10-28T14:45:19.332Z,2.13
2022-10-28T14:47:49.587Z,1.97
2022-10-28T14:50:20.549Z,2.50
2022-10-28T14:52:49.190Z,1.60
2022-10-28T14:55:32.708Z,1.53
2022-10-28T14:58:25.312Z,1.53
2022-10-28T15:01:17.955Z,1.53
2022-10-28T15:03:48.200Z,1.47
2022-10-28T15:06:44.772Z,3.13
2022-10-28T15:09:17.739Z,3.90
2022-10-28T15:11:47.071Z,2.60
2022-10-28T15:14:26.071Z,1.70
2022-10-28T15:16:53.421Z,2.23
2022-10-28T15:19:25.614Z,1.73
2022-10-28T15:22:16.650Z,1.70
2022-10-28T15:25:01.933Z,2.23
2022-10-28T15:27:36.727Z,2.10
2022-10-28T15:30:25.004Z,1.67
2022-10-28T15:32:53.032Z,2.30
2022-10-28T15:35:29.970Z,1.67
2022-10-28T15:38:00.530Z,1.73
2022-10-28T15:40:29.285Z,1.73
2022-10-28T15:43:04.393Z,1.53
2022-10-28T15:45:41.288Z,2.17
2022-10-28T15:48:15.698Z,2.47
2022-10-28T15:50:42.558Z,1.67
2022-10-28T15:53:31.353Z,1.53
2022-10-28T15:56:30.014Z,2.17
2022-10-28T15:59:00.054Z,1.50
2022-10-28T16:01:45.484Z,2.03
2022-10-28T16:04:18.277Z,1.40
2022-10-28T16:06:45.975Z,1.67
2022-10-28T16:09:20.238Z,1.63
2022-10-28T16:11:52.602Z,2.23
2022-10-28T16:14:37.734Z,1.90
2022-10-28T16:19:41.661Z,2.20
2022-10-28T16:22:13.166Z,1.50
2022-10-28T16:24:40.556Z,2.43
2022-10-28T16:27:21.451Z,2.23
2022-10-28T16:29:49.541Z,3.20
2022-10-28T16:32:17.914Z,2.40
2022-10-28T16:34:44.782Z,2.00
2022-10-28T16:37:32.334Z,2.33
2022-10-28T16:39:59.251Z,2.10
2022-10-28T16:42:26.348Z,1.97
2022-10-28T16:44:53.320Z,2.20
2022-10-28T16:47:21.915Z,1.70
2022-10-28T16:49:52.645Z,2.27
2022-10-28T16:52:27.995Z,1.70
2022-10-28T16:54:55.084Z,1.83
2022-10-28T16:59:54.360Z,5.80
2022-10-28T17:02:33.530Z,14.73
2022-10-28T17:05:01.138Z,14.77
2022-10-28T17:07:29.046Z,11.03
2022-10-28T17:09:57.078Z,10.53
2022-10-28T17:12:27.763Z,8.50
2022-10-28T17:14:54.916Z,8.77
2022-10-28T17:17:21.777Z,6.93
2022-10-28T17:19:48.673Z,6.87
2022-10-28T17:22:15.522Z,5.70
2022-10-28T17:24:42.504Z,6.30
2022-10-28T17:27:09.368Z,4.57
2022-10-28T17:29:36.394Z,5.07
2022-10-28T17:32:03.413Z,3.77
2022-10-28T17:34:30.310Z,3.43
2022-10-28T17:36:57.123Z,3.93
2022-10-28T17:39:26.376Z,5.23
2022-10-28T17:41:54.009Z,5.73
2022-10-28T17:44:20.979Z,5.40
2022-10-28T17:46:51.670Z,4.67
2022-10-28T17:49:18.833Z,3.10
2022-10-28T17:51:45.664Z,2.90
2022-10-28T17:54:12.529Z,2.40
2022-10-28T17:56:42.306Z,2.70
2022-10-28T17:59:09.629Z,5.47
2022-10-28T18:01:36.505Z,10.33
2022-10-28T18:04:04.930Z,8.50
2022-10-28T18:06:32.248Z,6.77
2022-10-28T18:08:59.059Z,6.30
2022-10-28T18:11:27.645Z,4.80
2022-10-28T18:13:56.541Z,4.80
2022-10-28T18:16:27.697Z,3.43
2022-10-28T18:18:55.675Z,3.20
2022-10-28T18:21:23.466Z,3.03
2022-10-28T18:23:54.474Z,3.37
2022-10-28T18:26:21.496Z,3.07
2022-10-28T18:28:49.261Z,2.93
2022-10-28T18:31:20.403Z,3.40
2022-10-28T18:33:48.057Z,3.78
2022-10-28T18:36:20.365Z,3.33
2022-10-28T18:38:47.348Z,2.50
2022-10-28T18:41:16.943Z,2.97
2022-10-28T18:43:43.776Z,2.93
2022-10-28T18:46:10.846Z,2.80
2022-10-28T18:48:37.740Z,2.57
2022-10-28T18:51:07.091Z,2.90
2022-10-28T18:53:42.102Z,2.47
2022-10-28T18:56:12.445Z,2.60
2022-10-28T18:58:39.554Z,2.53
2022-10-28T19:01:13.280Z,2.80
2022-10-28T19:03:41.125Z,3.30
2022-10-28T19:06:11.181Z,3.37
2022-10-28T19:08:39.092Z,3.30
2022-10-28T19:11:06.815Z,2.80
2022-10-28T19:13:35.586Z,3.87
2022-10-28T19:16:02.597Z,3.00
2022-10-28T19:18:29.884Z,3.37
2022-10-28T19:21:04.529Z,2.80
2022-10-28T19:23:32.480Z,3.13
2022-10-28T19:25:59.771Z,3.30
2022-10-28T19:28:26.899Z,3.17
2022-10-28T19:31:04.639Z,2.80
2022-10-28T19:33:32.535Z,2.83
2022-10-28T19:36:07.325Z,2.47
2022-10-28T19:38:35.929Z,3.50
2022-10-28T19:41:14.495Z,5.80
2022-10-28T19:43:41.951Z,8.07
2022-10-28T19:46:13.676Z,9.90
2022-10-28T19:48:41.970Z,8.27
2022-10-28T19:51:09.569Z,7.43
2022-10-28T19:53:36.359Z,6.67
2022-10-28T19:56:03.872Z,5.70
2022-10-28T19:58:31.715Z,3.87
2022-10-28T20:01:06.426Z,3.50
2022-10-28T20:03:35.002Z,3.30
2022-10-28T20:06:10.931Z,5.40
2022-10-28T20:08:39.821Z,5.93
2022-10-28T20:11:08.347Z,5.50
2022-10-28T20:13:36.412Z,4.63
2022-10-28T20:16:09.890Z,4.10
2022-10-28T20:18:37.185Z,3.67
2022-10-28T20:21:24.050Z,3.97
2022-10-28T20:23:56.018Z,4.07
2022-10-28T20:26:33.720Z,3.67
2022-10-28T20:29:03.142Z,4.17
2022-10-28T20:31:31.637Z,3.77
2022-10-28T20:34:01.716Z,3.20
2022-10-28T20:36:39.436Z,4.90
2022-10-28T20:39:14.738Z,5.47
2022-10-28T20:41:42.737Z,4.83
2022-10-28T20:44:10.051Z,5.30
2022-10-28T20:46:37.328Z,4.23
2022-10-28T20:49:05.016Z,4.20
2022-10-28T20:51:33.409Z,4.20
2022-10-28T20:54:00.610Z,3.90
2022-10-28T20:56:29.535Z,3.50
2022-10-28T20:58:56.966Z,2.87
2022-10-28T21:01:26.510Z,4.03
2022-10-28T21:04:01.344Z,5.30
2022-10-28T21:06:28.966Z,7.70
2022-10-28T21:08:56.749Z,10.87
2022-10-28T21:11:24.626Z,11.37
2022-10-28T21:13:53.165Z,13.03
2022-10-28T21:16:20.345Z,21.50
2022-10-28T21:18:49.772Z,22.10
2022-10-28T21:37:14.069Z,5.80
2022-10-28T21:39:41.227Z,3.33
2022-10-28T21:42:08.052Z,3.10
2022-10-28T21:44:34.880Z,2.70
2022-10-28T21:47:01.883Z,2.47
2022-10-28T21:49:28.696Z,1.93
2022-10-28T21:51:55.587Z,1.97
2022-10-28T21:54:22.397Z,2.23
2022-10-28T21:56:51.996Z,1.70
2022-10-28T21:59:19.105Z,1.90
2022-10-28T22:01:46.036Z,1.87
2022-10-28T22:04:14.700Z,1.43
2022-10-28T22:06:41.634Z,1.37
2022-10-28T22:09:08.749Z,1.83
2022-10-28T22:11:35.591Z,1.40
2022-10-28T22:14:04.654Z,1.37
2022-10-28T22:16:33.563Z,1.37
2022-10-28T22:19:16.556Z,1.70
2022-10-28T22:21:43.937Z,1.30
2022-10-28T22:24:10.846Z,1.20
2022-10-28T22:26:37.960Z,1.30
2022-10-28T22:29:04.853Z,1.30
2022-10-28T22:31:32.178Z,1.27
2022-10-28T22:33:59.652Z,1.03
2022-10-28T22:36:28.630Z,1.47
2022-10-28T22:38:55.500Z,0.90
2022-10-28T22:41:24.804Z,1.17
2022-10-28T22:43:58.096Z,1.50
2022-10-28T22:46:28.784Z,0.97
